createdAt,value
2022-10-30T00:00:48.087Z,99595.81
2022-10-30T00:03:18.069Z,99585.56
2022-10-30T00:05:48.397Z,99596.28
2022-10-30T00:08:19.163Z,99599.00
2022-10-30T00:10:50.232Z,99596.44
2022-10-30T00:13:19.338Z,99588.66
2022-10-30T00:15:49.997Z,99596.75
2022-10-30T00:18:19.566Z,99582.63
2022-10-30T00:20:47.953Z,99585.03
2022-10-30T00:23:16.477Z,99593.56
2022-10-30T00:25:44.597Z,99596.88
2022-10-30T00:28:12.670Z,99595.34
2022-10-30T00:30:41.168Z,99585.72
2022-10-30T00:33:09.288Z,99584.78
2022-10-30T00:35:38.783Z,99585.88
2022-10-30T00:38:06.839Z,99578.91
2022-10-30T00:40:34.972Z,99584.09
2022-10-30T00:43:03.057Z,99569.19
2022-10-30T00:45:31.478Z,99580.53
2022-10-30T00:48:03.818Z,99584.19
2022-10-30T00:50:35.678Z,99581.69
2022-10-30T00:53:09.032Z,99587.06
2022-10-30T00:55:41.247Z,99580.00
2022-10-30T00:58:15.358Z,99576.81
2022-10-30T01:00:50.140Z,99571.00
2022-10-30T01:03:19.338Z,99569.31
2022-10-30T01:05:52.927Z,99560.63
2022-10-30T01:08:22.337Z,99565.91
2022-10-30T01:10:51.296Z,99559.81
2022-10-30T01:13:22.470Z,99560.81
2022-10-30T01:16:14.937Z,99560.06
2022-10-30T01:18:54.008Z,99559.34
2022-10-30T01:21:39.529Z,99556.03
2022-10-30T01:24:21.797Z,99545.53
2022-10-30T01:26:57.848Z,99553.53
2022-10-30T01:29:40.918Z,99552.06
2022-10-30T01:32:19.370Z,99553.16
2022-10-30T01:34:56.512Z,99558.59
2022-10-30T01:37:33.779Z,99549.06
2022-10-30T01:40:10.225Z,99555.00
2022-10-30T01:42:48.410Z,99539.34
2022-10-30T01:45:26.917Z,99545.88
2022-10-30T01:48:19.379Z,99555.66
2022-10-30T01:50:59.020Z,99547.88
2022-10-30T01:53:43.805Z,99545.41
2022-10-30T01:56:23.508Z,99542.69
2022-10-30T01:59:03.061Z,99545.16
2022-10-30T02:01:35.785Z,99540.53
2022-10-30T02:04:05.027Z,99541.22
2022-10-30T02:06:33.209Z,99534.25
2022-10-30T02:09:01.477Z,99528.09
2022-10-30T02:11:34.212Z,99528.97
2022-10-30T02:14:05.698Z,99536.09
2022-10-30T02:16:36.697Z,99527.34
2022-10-30T02:19:06.588Z,99523.84
2022-10-30T02:21:36.106Z,99523.16
2022-10-30T02:24:04.359Z,99517.81
2022-10-30T02:26:32.529Z,99515.84
2022-10-30T02:29:02.358Z,99517.63
2022-10-30T02:31:30.575Z,99519.44
2022-10-30T02:33:58.705Z,99517.72
2022-10-30T02:36:26.867Z,99511.75
2022-10-30T02:38:57.920Z,99508.19
2022-10-30T02:41:26.607Z,99516.03
2022-10-30T02:43:54.740Z,99511.91
2022-10-30T02:46:23.107Z,99523.31
2022-10-30T02:48:51.169Z,99512.69
2022-10-30T02:51:19.318Z,99518.66
2022-10-30T02:53:48.356Z,99511.59
2022-10-30T02:56:18.319Z,99520.44
2022-10-30T02:58:46.348Z,99519.50
2022-10-30T03:01:17.023Z,99510.53
2022-10-30T03:03:46.721Z,99508.66
2022-10-30T03:06:17.038Z,99505.25
2022-10-30T03:08:45.778Z,99502.94
2022-10-30T03:11:16.258Z,99500.50
2022-10-30T03:13:47.205Z,99497.34
2022-10-30T03:16:17.107Z,99500.09
2022-10-30T03:18:45.727Z,99505.34
2022-10-30T03:21:16.458Z,99520.34
2022-10-30T03:23:46.010Z,99526.41
2022-10-30T03:26:14.473Z,99521.06
2022-10-30T03:28:54.668Z,99523.53
2022-10-30T03:31:22.835Z,99517.00
2022-10-30T03:34:08.600Z,99513.31
2022-10-30T03:36:36.867Z,99505.56
2022-10-30T03:39:05.207Z,99492.53
2022-10-30T03:41:34.397Z,99504.94
2022-10-30T03:44:03.828Z,99502.38
2022-10-30T03:46:31.958Z,99493.44
2022-10-30T03:49:15.417Z,99494.38
2022-10-30T03:51:43.853Z,99501.69
2022-10-30T03:54:12.007Z,99501.84
2022-10-30T03:56:40.208Z,99505.56
2022-10-30T03:59:11.649Z,99510.75
2022-10-30T04:01:41.943Z,99519.50
2022-10-30T04:04:10.206Z,99513.25
2022-10-30T04:06:38.279Z,99512.22
2022-10-30T04:09:08.017Z,99500.91
2022-10-30T04:11:41.720Z,99507.78
2022-10-30T04:14:11.180Z,99506.00
2022-10-30T04:16:39.236Z,99502.59
2022-10-30T04:19:08.006Z,99492.16
2022-10-30T04:21:36.188Z,99484.25
2022-10-30T04:24:04.348Z,99474.63
2022-10-30T04:26:34.688Z,99465.06
2022-10-30T04:29:03.007Z,99458.28
2022-10-30T04:31:32.418Z,99453.00
2022-10-30T04:34:00.649Z,99452.13
2022-10-30T04:36:32.969Z,99448.81
2022-10-30T04:39:02.566Z,99453.16
2022-10-30T04:41:31.155Z,99460.97
2022-10-30T04:44:05.499Z,99454.84
2022-10-30T04:46:35.479Z,99465.38
2022-10-30T04:49:09.696Z,99470.53
2022-10-30T04:51:37.847Z,99482.91
2022-10-30T04:54:08.137Z,99476.72
2022-10-30T04:56:38.388Z,99496.88
2022-10-30T04:59:06.850Z,99510.06
2022-10-30T05:01:36.400Z,99507.47
2022-10-30T05:04:05.567Z,99499.50
2022-10-30T05:06:34.922Z,99490.66
2022-10-30T05:09:03.588Z,99496.88
2022-10-30T05:11:50.047Z,99510.81
2022-10-30T05:14:18.936Z,99505.38
2022-10-30T05:16:48.637Z,99493.84
2022-10-30T05:19:16.989Z,99480.59
2022-10-30T05:21:53.338Z,99478.72
2022-10-30T05:24:21.625Z,99485.72
2022-10-30T05:26:50.177Z,99482.16
2022-10-30T05:29:18.536Z,99490.81
2022-10-30T05:31:47.974Z,99477.31
2022-10-30T05:34:35.888Z,99486.78
2022-10-30T05:37:04.617Z,99489.25
2022-10-30T05:39:32.728Z,99470.78
2022-10-30T05:42:01.057Z,99476.84
2022-10-30T05:44:59.799Z,99474.06
2022-10-30T05:47:30.046Z,99472.72
2022-10-30T05:49:59.017Z,99473.31
2022-10-30T05:52:29.273Z,99478.34
2022-10-30T05:55:00.089Z,99481.84
2022-10-30T05:57:36.567Z,99492.13
2022-10-30T06:00:05.749Z,99511.06
2022-10-30T06:02:44.630Z,99508.22
2022-10-30T06:05:18.105Z,99506.34
2022-10-30T06:07:46.763Z,99494.94
2022-10-30T06:10:14.917Z,99503.78
2022-10-30T06:12:55.292Z,99494.03
2022-10-30T06:15:35.125Z,99499.88
2022-10-30T06:18:05.376Z,99482.34
2022-10-30T06:20:49.348Z,99490.88
2022-10-30T06:23:36.028Z,99483.88
2022-10-30T06:26:14.777Z,99480.31
2022-10-30T06:28:45.790Z,99489.94
2022-10-30T06:31:15.916Z,99475.88
2022-10-30T06:33:45.397Z,99473.34
2022-10-30T06:36:15.328Z,99484.66
2022-10-30T06:38:44.758Z,99472.31
2022-10-30T06:41:15.378Z,99468.81
2022-10-30T06:44:01.986Z,99452.13
2022-10-30T06:46:33.868Z,99459.19
2022-10-30T06:49:04.987Z,99476.72
2022-10-30T06:51:33.386Z,99472.47
2022-10-30T06:54:02.099Z,99468.72
2022-10-30T06:56:51.287Z,99459.00
2022-10-30T06:59:39.376Z,99458.06
2022-10-30T07:02:26.165Z,99466.88
2022-10-30T07:04:59.949Z,99458.88
2022-10-30T07:07:28.579Z,99464.06
2022-10-30T07:09:56.687Z,99465.84
2022-10-30T07:12:40.307Z,99477.16
2022-10-30T07:15:17.018Z,99472.50
2022-10-30T07:18:04.794Z,99474.38
2022-10-30T07:20:38.167Z,99481.34
2022-10-30T07:23:06.720Z,99481.16
2022-10-30T07:25:34.989Z,99484.59
2022-10-30T07:28:10.275Z,99470.38
2022-10-30T07:30:56.788Z,99461.59
2022-10-30T07:33:43.031Z,99456.31
2022-10-30T07:36:30.217Z,99463.47
2022-10-30T07:39:11.867Z,99452.06
2022-10-30T07:41:52.658Z,99452.91
2022-10-30T07:44:41.557Z,99441.56
2022-10-30T07:47:19.528Z,99468.75
2022-10-30T07:49:58.388Z,99465.19
2022-10-30T07:52:32.401Z,99462.44
2022-10-30T07:55:01.294Z,99457.16
2022-10-30T07:57:50.464Z,99458.78
2022-10-30T08:00:37.103Z,99452.72
2022-10-30T08:03:25.598Z,99457.16
2022-10-30T08:05:58.298Z,99456.13
2022-10-30T08:08:42.025Z,99463.13
2022-10-30T08:11:21.258Z,99464.66
2022-10-30T08:13:49.626Z,99460.72
2022-10-30T08:16:19.327Z,99462.44
2022-10-30T08:18:47.559Z,99443.03
2022-10-30T08:21:15.667Z,99439.16
2022-10-30T08:23:56.606Z,99444.38
2022-10-30T08:26:28.436Z,99447.78
2022-10-30T08:28:56.528Z,99455.81
2022-10-30T08:31:26.648Z,99451.19
2022-10-30T08:34:17.198Z,99433.28
2022-10-30T08:36:50.730Z,99451.44
2022-10-30T08:39:21.100Z,99447.84
2022-10-30T08:42:07.596Z,99465.59
2022-10-30T08:44:41.588Z,99445.19
2022-10-30T08:47:15.338Z,99459.16
2022-10-30T08:49:43.747Z,99449.53
2022-10-30T08:52:12.807Z,99460.22
2022-10-30T08:54:42.587Z,99458.22
2022-10-30T08:57:10.717Z,99462.31
2022-10-30T08:59:40.717Z,99461.22
2022-10-30T09:02:14.736Z,99464.50
2022-10-30T09:05:09.358Z,99465.88
2022-10-30T09:07:58.168Z,99455.03
2022-10-30T09:10:49.066Z,99458.34
2022-10-30T09:13:17.446Z,99459.00
2022-10-30T09:15:45.527Z,99454.56
2022-10-30T09:18:13.685Z,99460.44
2022-10-30T09:20:41.874Z,99456.75
2022-10-30T09:23:10.234Z,99468.78
2022-10-30T09:25:38.588Z,99459.53
2022-10-30T09:28:19.145Z,99468.16
2022-10-30T09:31:06.028Z,99464.66
2022-10-30T09:33:38.589Z,99471.66
2022-10-30T09:36:33.126Z,99457.22
2022-10-30T09:39:02.368Z,99467.53
2022-10-30T09:41:52.993Z,99458.47
2022-10-30T09:44:39.376Z,99459.06
2022-10-30T09:47:23.526Z,99454.16
2022-10-30T09:49:57.109Z,99458.00
2022-10-30T09:52:30.387Z,99460.28
2022-10-30T09:55:15.556Z,99460.97
2022-10-30T09:57:51.886Z,99461.72
2022-10-30T10:00:23.698Z,99443.94
2022-10-30T10:03:06.869Z,99438.66
2022-10-30T10:05:52.307Z,99449.22
2022-10-30T10:08:43.487Z,99445.84
2022-10-30T10:11:39.909Z,99450.19
2022-10-30T10:14:14.890Z,99447.53
2022-10-30T10:16:49.676Z,99435.47
2022-10-30T10:19:21.713Z,99442.44
2022-10-30T10:21:56.296Z,99450.47
2022-10-30T10:24:27.289Z,99454.81
2022-10-30T10:27:00.588Z,99461.72
2022-10-30T10:29:35.297Z,99459.81
2022-10-30T10:32:27.611Z,99457.75
2022-10-30T10:35:12.627Z,99464.00
2022-10-30T10:37:50.310Z,99450.97
2022-10-30T10:40:29.628Z,99449.16
2022-10-30T10:43:08.193Z,99449.06
2022-10-30T10:45:49.956Z,99459.44
2022-10-30T10:48:42.494Z,99455.00
2022-10-30T10:51:15.607Z,99451.44
2022-10-30T10:53:47.916Z,99456.72
2022-10-30T10:56:17.038Z,99467.22
2022-10-30T10:58:51.309Z,99465.41
2022-10-30T11:01:24.235Z,99473.44
2022-10-30T11:03:59.498Z,99465.50
2022-10-30T11:06:30.994Z,99473.44
2022-10-30T11:09:13.489Z,99470.72
2022-10-30T11:11:41.738Z,99468.81
2022-10-30T11:14:15.721Z,99463.22
2022-10-30T11:17:02.098Z,99466.16
2022-10-30T11:19:32.923Z,99473.44
2022-10-30T11:22:02.428Z,99456.41
2022-10-30T11:24:33.166Z,99471.13
2022-10-30T11:27:18.818Z,99455.47
2022-10-30T11:29:53.047Z,99456.69
2022-10-30T11:32:23.699Z,99457.44
2022-10-30T11:35:04.976Z,99465.28
2022-10-30T11:37:35.462Z,99470.03
2022-10-30T11:40:06.782Z,99480.63
2022-10-30T11:42:36.389Z,99477.56
2022-10-30T11:45:06.001Z,99456.84
2022-10-30T11:47:36.481Z,99474.16
2022-10-30T11:50:08.994Z,99467.75
2022-10-30T11:52:42.442Z,99456.00
2022-10-30T11:55:16.234Z,99469.03
2022-10-30T11:57:46.998Z,99451.72
2022-10-30T12:00:18.330Z,99453.72
2022-10-30T12:02:51.465Z,99449.19
2022-10-30T12:05:36.997Z,99452.84
2022-10-30T12:08:23.725Z,99455.88
2022-10-30T12:11:11.197Z,99442.56
2022-10-30T12:13:41.082Z,99443.56
2022-10-30T12:16:14.300Z,99445.25
2022-10-30T12:18:43.794Z,99443.97
2022-10-30T12:21:19.740Z,99449.69
2022-10-30T12:23:54.509Z,99461.78
2022-10-30T12:26:25.610Z,99445.25
2022-10-30T12:29:00.090Z,99441.78
2022-10-30T12:31:35.750Z,99436.13
2022-10-30T12:34:24.126Z,99450.16
2022-10-30T12:36:57.840Z,99462.44
2022-10-30T12:39:32.522Z,99463.69
2022-10-30T12:42:03.860Z,99458.75
2022-10-30T12:44:36.518Z,99472.03
2022-10-30T12:47:09.675Z,99468.75
2022-10-30T12:49:42.806Z,99478.59
2022-10-30T12:52:18.753Z,99482.63
2022-10-30T12:54:53.686Z,99487.75
2022-10-30T12:57:26.419Z,99486.53
2022-10-30T13:00:02.827Z,99487.22
2022-10-30T13:02:43.836Z,99477.16
2022-10-30T13:05:25.458Z,99468.47
2022-10-30T13:08:03.718Z,99473.72
2022-10-30T13:10:35.789Z,99462.66
2022-10-30T13:13:11.510Z,99475.13
2022-10-30T13:15:45.870Z,99530.75
2022-10-30T13:18:18.005Z,99559.75
2022-10-30T13:20:56.996Z,99554.91
2022-10-30T13:23:30.498Z,99555.31
2022-10-30T13:26:11.367Z,99547.09
2022-10-30T13:28:47.635Z,99547.31
2022-10-30T13:31:25.469Z,99549.69
2022-10-30T13:34:02.498Z,99562.22
2022-10-30T13:36:39.394Z,99550.75
2022-10-30T13:39:20.836Z,99542.00
2022-10-30T13:42:05.614Z,99542.56
2022-10-30T13:44:47.060Z,99522.75
2022-10-30T13:47:24.896Z,99515.06
2022-10-30T13:50:11.535Z,99517.50
2022-10-30T13:52:44.646Z,99530.28
2022-10-30T13:55:20.760Z,99519.19
2022-10-30T13:57:56.563Z,99514.53
2022-10-30T14:00:31.219Z,99511.44
2022-10-30T14:03:15.753Z,99513.59
2022-10-30T14:05:49.295Z,99517.47
2022-10-30T14:08:26.658Z,99526.31
2022-10-30T14:11:00.622Z,99535.16
2022-10-30T14:13:31.288Z,99519.81
2022-10-30T14:16:03.056Z,99523.94
2022-10-30T14:18:40.217Z,99514.84
2022-10-30T14:21:41.457Z,99510.44
2022-10-30T14:24:19.339Z,99507.19
2022-10-30T14:26:53.070Z,99510.66
2022-10-30T14:29:41.888Z,99510.88
2022-10-30T14:32:39.197Z,99513.63
2022-10-30T14:35:40.398Z,99510.22
2022-10-30T14:38:29.185Z,99511.19
2022-10-30T14:41:20.288Z,99526.88
2022-10-30T14:44:11.312Z,99521.38
2022-10-30T14:46:49.126Z,99528.09
2022-10-30T14:49:44.017Z,99532.38
2022-10-30T14:52:21.939Z,99532.22
2022-10-30T14:54:59.557Z,99537.66
2022-10-30T14:57:48.306Z,99540.44
2022-10-30T15:00:39.164Z,99543.16
2022-10-30T15:03:13.579Z,99537.75
2022-10-30T15:05:49.321Z,99541.06
2022-10-30T15:08:38.848Z,99541.91
2022-10-30T15:11:22.407Z,99544.31
2022-10-30T15:13:55.355Z,99535.47
2022-10-30T15:16:27.654Z,99544.16
2022-10-30T15:19:01.825Z,99545.84
2022-10-30T15:21:34.137Z,99551.13
2022-10-30T15:24:03.014Z,99546.03
2022-10-30T15:26:37.340Z,99551.31
2022-10-30T15:29:07.187Z,99549.81
2022-10-30T15:31:36.615Z,99546.41
2022-10-30T15:34:16.114Z,99553.63
2022-10-30T15:36:44.316Z,99556.50
2022-10-30T15:39:13.990Z,99556.66
2022-10-30T15:41:46.075Z,99565.66
2022-10-30T15:46:49.117Z,99561.84
2022-10-30T15:49:21.429Z,99560.94
2022-10-30T15:51:49.895Z,99567.91
2022-10-30T15:54:22.432Z,99567.06
2022-10-30T15:57:27.462Z,99568.22
2022-10-30T15:59:52.619Z,99565.66
2022-10-30T16:02:24.207Z,99564.94
2022-10-30T16:04:52.536Z,99567.75
2022-10-30T16:07:23.312Z,99565.13
2022-10-30T16:09:55.408Z,99563.31
2022-10-30T16:12:26.906Z,99578.34
2022-10-30T16:14:55.947Z,99573.31
2022-10-30T16:17:26.600Z,99568.66
2022-10-30T16:20:00.959Z,99569.28
2022-10-30T16:22:31.207Z,99567.09
2022-10-30T16:24:59.808Z,99578.59
2022-10-30T16:27:28.582Z,99575.41
2022-10-30T16:30:00.127Z,99575.50
2022-10-30T16:32:32.416Z,99577.34
2022-10-30T16:35:03.781Z,99586.19
2022-10-30T16:37:36.109Z,99583.56
2022-10-30T16:40:11.808Z,99579.84
2022-10-30T16:42:40.127Z,99578.03
2022-10-30T16:45:47.316Z,99580.28
2022-10-30T16:48:24.605Z,99589.00
2022-10-30T16:50:52.847Z,99582.31
2022-10-30T16:53:23.789Z,99589.13
2022-10-30T16:55:52.816Z,99590.84
2022-10-30T16:58:22.084Z,99582.94
2022-10-30T17:00:53.109Z,99597.22
2022-10-30T17:03:26.622Z,99593.00
2022-10-30T17:06:02.801Z,99604.09
2022-10-30T17:08:36.916Z,99606.13
2022-10-30T17:11:07.656Z,99612.81
2022-10-30T17:13:38.338Z,99615.66
2022-10-30T17:16:26.952Z,99612.94
2022-10-30T17:18:57.768Z,99621.06
2022-10-30T17:21:30.266Z,99623.72
2022-10-30T17:24:00.494Z,99632.44
2022-10-30T17:26:32.119Z,99629.50
2022-10-30T17:29:00.319Z,99638.81
2022-10-30T17:31:42.875Z,99636.16
2022-10-30T17:34:17.206Z,99640.03
2022-10-30T17:36:46.308Z,99642.97
2022-10-30T17:39:14.991Z,99644.88
2022-10-30T17:41:44.417Z,99654.44
2022-10-30T17:44:20.843Z,99658.50
2022-10-30T17:46:51.112Z,99654.13
2022-10-30T17:49:26.238Z,99655.00
2022-10-30T17:51:54.560Z,99666.53
2022-10-30T17:54:22.987Z,99672.97
2022-10-30T17:56:51.636Z,99670.41
2022-10-30T17:59:19.897Z,99679.38
2022-10-30T18:01:49.183Z,99685.75
2022-10-30T18:04:21.444Z,99682.66
2022-10-30T18:06:51.253Z,99683.28
2022-10-30T18:09:19.367Z,99682.53
2022-10-30T18:11:47.536Z,99694.97
2022-10-30T18:14:15.692Z,99685.94
2022-10-30T18:16:43.866Z,99701.59
2022-10-30T18:19:12.948Z,99698.03
2022-10-30T18:21:41.208Z,99704.19
2022-10-30T18:24:13.531Z,99701.44
2022-10-30T18:26:42.253Z,99704.56
2022-10-30T18:29:10.558Z,99710.84
2022-10-30T18:31:39.663Z,99715.34
2022-10-30T18:34:15.829Z,99709.28
2022-10-30T18:36:44.455Z,99712.94
2022-10-30T18:39:14.153Z,99717.56
2022-10-30T18:41:43.865Z,99714.72
2022-10-30T18:44:15.679Z,99720.69
2022-10-30T18:46:44.700Z,99735.53
2022-10-30T18:49:14.988Z,99732.56
2022-10-30T18:51:43.088Z,99741.38
2022-10-30T18:54:15.848Z,99746.75
2022-10-30T18:56:44.367Z,99745.22
2022-10-30T18:59:12.709Z,99747.06
2022-10-30T19:01:41.094Z,99740.38
2022-10-30T19:04:10.898Z,99741.28
2022-10-30T19:06:39.312Z,99740.53
2022-10-30T19:09:07.631Z,99748.47
2022-10-30T19:11:38.456Z,99752.91
2022-10-30T19:14:13.570Z,99744.78
2022-10-30T19:16:41.999Z,99749.69
2022-10-30T19:19:10.076Z,99751.34
2022-10-30T19:21:38.365Z,99749.41
2022-10-30T19:24:13.431Z,99752.34
2022-10-30T19:26:42.996Z,99756.06
2022-10-30T19:29:11.092Z,99750.78
2022-10-30T19:31:39.384Z,99753.47
2022-10-30T19:34:07.456Z,99754.66
2022-10-30T19:36:37.347Z,99760.03
2022-10-30T19:39:11.389Z,99767.03
2022-10-30T19:41:40.094Z,99772.38
2022-10-30T19:44:09.908Z,99763.72
2022-10-30T19:46:38.668Z,99767.31
2022-10-30T19:49:17.318Z,99776.91
2022-10-30T19:51:45.699Z,99784.13
2022-10-30T19:54:13.809Z,99771.16
2022-10-30T19:56:43.543Z,99773.94
2022-10-30T19:59:14.305Z,99772.28
2022-10-30T20:01:44.224Z,99772.25
2022-10-30T20:04:12.677Z,99776.41
2022-10-30T20:06:40.886Z,99783.41
2022-10-30T20:09:11.776Z,99778.41
2022-10-30T20:11:39.961Z,99782.25
2022-10-30T20:14:08.160Z,99779.69
2022-10-30T20:16:37.577Z,99782.53
2022-10-30T20:19:27.518Z,99788.03
2022-10-30T20:21:56.446Z,99797.06
2022-10-30T20:24:25.029Z,99791.78
2022-10-30T20:26:54.197Z,99790.84
2022-10-30T20:29:22.500Z,99789.22
2022-10-30T20:31:55.768Z,99800.72
2022-10-30T20:34:24.006Z,99806.00
2022-10-30T20:36:52.066Z,99804.44
2022-10-30T20:39:20.746Z,99804.56
2022-10-30T20:41:49.067Z,99805.56
2022-10-30T20:44:17.194Z,99802.19
2022-10-30T20:46:45.213Z,99817.38
2022-10-30T20:49:18.203Z,99815.78
2022-10-30T20:51:47.397Z,99812.38
2022-10-30T20:54:15.754Z,99812.09
2022-10-30T20:56:44.005Z,99817.09
2022-10-30T20:59:12.095Z,99818.16
2022-10-30T21:01:40.353Z,99804.97
2022-10-30T21:04:08.449Z,99814.66
2022-10-30T21:06:37.875Z,99810.38
2022-10-30T21:09:06.016Z,99812.47
2022-10-30T21:11:34.458Z,99809.06
2022-10-30T21:14:02.525Z,99818.59
2022-10-30T21:16:30.637Z,99813.22
2022-10-30T21:18:59.147Z,99818.47
2022-10-30T21:21:27.408Z,99815.63
2022-10-30T21:23:57.060Z,99817.38
2022-10-30T21:26:25.748Z,99820.03
2022-10-30T21:28:53.879Z,99805.25
2022-10-30T21:31:22.074Z,99818.47
2022-10-30T21:33:50.127Z,99813.34
2022-10-30T21:36:20.510Z,99824.97
2022-10-30T21:38:48.973Z,99822.63
2022-10-30T21:41:21.028Z,99820.97
2022-10-30T21:43:51.748Z,99823.75
2022-10-30T21:46:20.913Z,99821.97
2022-10-30T21:48:49.502Z,99830.03
2022-10-30T21:51:19.042Z,99830.22
2022-10-30T21:53:48.438Z,99823.47
2022-10-30T21:56:19.845Z,99821.13
2022-10-30T21:58:48.486Z,99821.41
2022-10-30T22:01:17.988Z,99827.63
2022-10-30T22:03:46.718Z,99833.81
2022-10-30T22:06:17.119Z,99840.88
2022-10-30T22:08:46.450Z,99834.81
2022-10-30T22:11:14.908Z,99825.06
2022-10-30T22:13:44.387Z,99831.50
2022-10-30T22:16:14.444Z,99824.78
2022-10-30T22:18:42.824Z,99828.66
2022-10-30T22:21:13.329Z,99827.84
2022-10-30T22:23:42.476Z,99829.72
2022-10-30T22:26:14.647Z,99830.44
2022-10-30T22:28:44.806Z,99824.19
2022-10-30T22:31:14.964Z,99825.91
2022-10-30T22:33:44.076Z,99819.66
2022-10-30T22:36:16.567Z,99826.25
2022-10-30T22:38:45.145Z,99828.63
2022-10-30T22:41:15.703Z,99828.63
2022-10-30T22:43:47.099Z,99817.84
2022-10-30T22:46:16.475Z,99830.00
2022-10-30T22:48:45.459Z,99830.75
2022-10-30T22:51:16.687Z,99817.47
2022-10-30T22:53:46.014Z,99830.56
2022-10-30T22:56:16.445Z,99817.28
2022-10-30T22:58:49.665Z,99824.19
2022-10-30T23:01:19.741Z,99815.44
2022-10-30T23:03:48.242Z,99830.31
2022-10-30T23:06:16.776Z,99830.31
2022-10-30T23:08:45.120Z,99826.75
2022-10-30T23:11:14.180Z,99824.78
2022-10-30T23:13:42.379Z,99828.09
2022-10-30T23:16:14.986Z,99832.50
2022-10-30T23:18:44.584Z,99828.00
2022-10-30T23:21:14.963Z,99823.41
2022-10-30T23:23:44.596Z,99823.28
2022-10-30T23:26:15.910Z,99833.75
2022-10-30T23:28:44.832Z,99836.19
2022-10-30T23:31:20.058Z,99831.56
2022-10-30T23:33:48.939Z,99832.50
2022-10-30T23:36:17.811Z,99828.00
2022-10-30T23:38:46.568Z,99828.94
2022-10-30T23:41:14.750Z,99821.19
2022-10-30T23:43:42.858Z,99824.78
2022-10-30T23:46:10.947Z,99831.97
2022-10-30T23:48:40.413Z,99829.38
2022-10-30T23:51:09.333Z,99824.19
2022-10-30T23:53:37.585Z,99828.69
2022-10-30T23:56:06.380Z,99815.63
2022-10-30T23:58:34.510Z,99830.53
